Benson, Nebraska
Current Conditions -  °F | °C
As of 6:52 AM on Thursday 18 Dec 2014 (Local Time) from KOMA Reporting Station
Light Snow Light Snow  
Wind Chill: 22°   Ceiling: 4400
Heat Index: 27°   Visibility: 6mi
Dew Point: 22°   Wind: 5mph
Humidity: 81%   Direction: 120°ESE
Pressure: 30.25"   Gusts: NA
Location:  41.2947°N, 96.0008°W
Report Text: KOMA 181252Z 12004KT 6SM -SN OVC044 M03/M06 A3025 RMK AO2 SLP254 P0000 T10281056
Loading
Personal Weather Stations






























Interactive Weather Map New forecast layout! Learn more

10-Day Weather Forecast

Advertisements
Track Severe Weather on mobile